createdAt,value
2018-08-03T00:02:21.784Z,93887.13
2018-08-03T00:17:25.978Z,93870.23
2018-08-03T00:32:29.772Z,93866.22
2018-08-03T00:47:33.963Z,93870.91
2018-08-03T01:02:38.355Z,93876.88
2018-08-03T01:17:42.719Z,93881.64
2018-08-03T01:32:46.928Z,93875.40
2018-08-03T01:47:51.182Z,93878.56
2018-08-03T02:02:55.364Z,93884.34
2018-08-03T02:17:59.719Z,93891.45
2018-08-03T02:33:03.861Z,93895.90
2018-08-03T02:48:08.058Z,93894.65
2018-08-03T03:03:12.457Z,93891.24
2018-08-03T03:18:17.033Z,93912.47
2018-08-03T03:33:21.140Z,93912.88
2018-08-03T03:48:25.328Z,93915.83
2018-08-03T04:03:29.405Z,93933.36
2018-08-03T04:18:33.615Z,93928.98
2018-08-03T04:33:37.966Z,93934.27
2018-08-03T04:48:42.156Z,93940.13
2018-08-03T05:03:46.438Z,93939.26
2018-08-03T05:18:50.287Z,93944.67
2018-08-03T05:33:54.989Z,93951.52
2018-08-03T05:48:58.777Z,93952.06
2018-08-03T06:04:03.061Z,93948.19
2018-08-03T06:19:07.502Z,93945.63
2018-08-03T06:34:11.606Z,93973.73
2018-08-03T06:49:15.512Z,93974.42
2018-08-03T07:04:19.323Z,93954.06
2018-08-03T07:19:23.115Z,93969.70
2018-08-03T07:34:27.036Z,93962.30
2018-08-03T07:49:30.995Z,93972.58
2018-08-03T08:04:35.281Z,93967.91
2018-08-03T08:19:39.108Z,93984.70
2018-08-03T08:34:43.391Z,93974.56
2018-08-03T08:49:47.181Z,93973.96
2018-08-03T09:04:51.051Z,93973.42
2018-08-03T09:19:54.876Z,93967.79
2018-08-03T09:34:58.705Z,93958.98
2018-08-03T09:50:02.784Z,93954.11
2018-08-03T10:05:06.605Z,93949.11
2018-08-03T10:20:10.547Z,93927.50
2018-08-03T10:35:15.555Z,93906.80
2018-08-03T10:50:19.551Z,93899.05
2018-08-03T11:05:23.513Z,93887.67
2018-08-03T11:20:27.937Z,93880.40
2018-08-03T11:35:31.850Z,93867.39
2018-08-03T11:50:35.681Z,93868.27
2018-08-03T12:05:39.782Z,93875.08
2018-08-03T12:20:45.561Z,93852.14
2018-08-03T12:35:49.435Z,93852.73
2018-08-03T12:50:53.467Z,93838.25
2018-08-03T13:05:57.680Z,93841.34
2018-08-03T13:21:02.235Z,93829.45
2018-08-03T13:36:06.103Z,93829.77
2018-08-03T13:51:09.919Z,93825.20
2018-08-03T14:06:13.736Z,93820.74
2018-08-03T14:21:17.550Z,93811.80
2018-08-03T14:36:21.487Z,93798.39
2018-08-03T14:51:25.306Z,93793.36
2018-08-03T15:06:29.675Z,93794.13
2018-08-03T15:21:34.056Z,93809.54
2018-08-03T15:36:38.394Z,93814.45
2018-08-03T15:51:42.257Z,93827.08
2018-08-03T16:06:46.807Z,93838.16
2018-08-03T16:21:50.980Z,93841.53
2018-08-03T16:36:55.386Z,93842.47
2018-08-03T16:51:59.846Z,93839.66
2018-08-03T17:07:04.400Z,93849.49
2018-08-03T17:22:08.691Z,93857.17
2018-08-03T17:37:12.542Z,93862.22
2018-08-03T17:52:16.752Z,93873.69
2018-08-03T18:07:20.974Z,93876.31
2018-08-03T18:22:25.344Z,93886.92
2018-08-03T18:37:29.733Z,93904.13
2018-08-03T18:52:34.045Z,93922.70
2018-08-03T19:07:38.313Z,93914.13
2018-08-03T19:22:42.578Z,93920.29
2018-08-03T19:37:47.206Z,93923.63
2018-08-03T19:52:51.657Z,93917.80
2018-08-03T20:07:55.948Z,93917.31
2018-08-03T20:23:00.262Z,93918.30
2018-08-03T20:38:04.524Z,93918.40
2018-08-03T20:53:09.053Z,93923.11
2018-08-03T21:08:13.243Z,93931.02
2018-08-03T21:23:17.655Z,93930.02
2018-08-03T21:38:21.821Z,93938.79
2018-08-03T21:53:26.198Z,93932.80
2018-08-03T22:08:30.253Z,93935.92
2018-08-03T22:23:34.488Z,93953.97
2018-08-03T22:38:38.881Z,93945.72
2018-08-03T22:53:43.320Z,93936.88
2018-08-03T23:08:47.627Z,93924.59
2018-08-03T23:23:51.958Z,93928.13
2018-08-03T23:38:56.124Z,93924.56
2018-08-03T23:54:00.322Z,93914.54
